Time;durP1;ratioP1;P1;durP2;ratioP2;P2;SDS_P1;SDS_P2;PMS_P1;PMS_P2;Temp;Humidity;BMP_temperature;BMP_pressure;BME280_temperature;BME280_humidity;BME280_pressure;Samples;Min_cycle;Max_cycle;Signal;HPM_P1;HPM_P2
2023/04/22 00:00:07;;;;;;;13.10;9.38;;;10.80;99.90;;;;;;5111289;27;20084;-46
2023/04/22 00:02:35;;;;;;;13.82;9.05;;;10.80;99.90;;;;;;5102097;28;20012;-46
2023/04/22 00:05:02;;;;;;;11.27;8.77;;;10.80;99.90;;;;;;5109564;28;20031;-45
2023/04/22 00:07:27;;;;;;;10.57;9.10;;;10.70;99.90;;;;;;5110102;28;20015;-45
2023/04/22 00:09:53;;;;;;;10.63;8.75;;;10.70;99.90;;;;;;5109509;28;20100;-46
2023/04/22 00:12:18;;;;;;;12.50;9.18;;;10.60;99.90;;;;;;5109080;28;20099;-46
2023/04/22 00:14:44;;;;;;;15.60;10.57;;;10.60;99.90;;;;;;5109814;28;20027;-46
2023/04/22 00:17:10;;;;;;;15.68;10.43;;;10.60;99.90;;;;;;5109615;28;20031;-45
2023/04/22 00:19:36;;;;;;;14.48;10.23;;;10.60;99.90;;;;;;5108999;28;20422;-45
2023/04/22 00:22:02;;;;;;;14.15;10.23;;;10.50;99.90;;;;;;5108840;28;20062;-46
2023/04/22 00:24:28;;;;;;;13.50;10.40;;;10.50;99.90;;;;;;5108993;28;20433;-46
2023/04/22 00:26:54;;;;;;;13.48;10.23;;;10.50;99.90;;;;;;5109175;28;20027;-47
2023/04/22 00:29:19;;;;;;;14.02;10.48;;;10.40;99.90;;;;;;5109151;28;20385;-46
2023/04/22 00:31:45;;;;;;;13.90;10.45;;;10.30;99.90;;;;;;5115477;27;20031;-45
2023/04/22 00:34:11;;;;;;;12.40;10.48;;;10.30;99.90;;;;;;5109146;28;20396;-46
2023/04/22 00:36:36;;;;;;;14.93;11.10;;;10.30;99.90;;;;;;5109277;28;20031;-45
2023/04/22 00:39:02;;;;;;;15.35;11.10;;;10.30;99.90;;;;;;5109019;28;20027;-45
2023/04/22 00:41:28;;;;;;;15.20;10.27;;;10.30;99.90;;;;;;5090366;28;20450;-47
2023/04/22 00:43:53;;;;;;;13.40;10.60;;;10.20;99.90;;;;;;5109042;28;20050;-45
2023/04/22 00:46:19;;;;;;;15.30;10.45;;;10.20;99.90;;;;;;5090168;28;20059;-46
2023/04/22 00:48:45;;;;;;;14.07;10.82;;;10.20;99.90;;;;;;5108716;28;20024;-47
2023/04/22 00:51:11;;;;;;;15.65;11.32;;;10.10;99.90;;;;;;5108611;28;20020;-45
2023/04/22 00:53:36;;;;;;;22.55;11.98;;;10.10;99.90;;;;;;5108635;28;20116;-46
2023/04/22 00:56:02;;;;;;;19.13;12.30;;;10.10;99.90;;;;;;5108516;28;20024;-46
2023/04/22 00:58:29;;;;;;;23.58;13.75;;;10.10;99.90;;;;;;5108376;28;20053;-48
2023/04/22 01:00:55;;;;;;;18.77;11.75;;;10.10;99.90;;;;;;5114472;27;20496;-46
2023/04/22 01:03:22;;;;;;;19.20;12.90;;;10.10;99.90;;;;;;5108813;27;20030;-46
2023/04/22 01:05:48;;;;;;;16.80;12.52;;;10.10;99.90;;;;;;5109032;28;20106;-46
2023/04/22 01:08:15;;;;;;;17.10;12.48;;;10.10;99.90;;;;;;5108186;28;20042;-47
2023/04/22 01:10:41;;;;;;;18.42;13.02;;;10.20;99.90;;;;;;5089954;28;20055;-46
2023/04/22 01:13:07;;;;;;;18.25;13.77;;;10.20;99.90;;;;;;5108140;28;20076;-46
2023/04/22 01:15:32;;;;;;;16.95;13.45;;;10.20;99.90;;;;;;5108043;28;20396;-47
2023/04/22 01:18:00;;;;;;;20.95;13.63;;;10.20;99.90;;;;;;5107525;28;20098;-46
2023/04/22 01:20:30;;;;;;;24.45;14.05;;;10.20;99.90;;;;;;5108134;28;20034;-46
2023/04/22 01:22:57;;;;;;;19.33;13.52;;;10.20;99.90;;;;;;5107905;28;20085;-46
2023/04/22 01:25:24;;;;;;;19.50;13.48;;;10.20;99.90;;;;;;5108388;28;20041;-46
2023/04/22 01:27:49;;;;;;;16.90;12.45;;;10.20;99.90;;;;;;5107802;28;20102;-46
2023/04/22 01:30:15;;;;;;;17.83;12.75;;;10.30;99.90;;;;;;5107555;28;20565;-46
2023/04/22 01:32:41;;;;;;;20.58;13.48;;;10.30;99.90;;;;;;5088995;28;20446;-46
2023/04/22 01:35:07;;;;;;;18.77;13.52;;;10.30;99.90;;;;;;5107518;28;20034;-45
2023/04/22 01:37:34;;;;;;;20.20;13.73;;;10.40;99.90;;;;;;5107949;28;20016;-46
2023/04/22 01:40:00;;;;;;;20.38;13.32;;;10.30;99.90;;;;;;5108077;28;20027;-45
2023/04/22 01:42:25;;;;;;;18.45;13.07;;;10.40;99.90;;;;;;5089513;28;20103;-46
2023/04/22 01:44:51;;;;;;;17.75;13.73;;;10.30;99.90;;;;;;5107731;28;20119;-47
2023/04/22 01:47:17;;;;;;;21.20;14.52;;;10.40;99.90;;;;;;5107538;28;20028;-46
2023/04/22 01:49:42;;;;;;;19.08;13.20;;;10.40;99.90;;;;;;5088916;28;20429;-46
2023/04/22 01:52:08;;;;;;;18.10;13.25;;;10.30;99.90;;;;;;5106437;28;20028;-45
2023/04/22 01:54:34;;;;;;;17.60;13.05;;;10.30;99.90;;;;;;5107440;28;20437;-46
2023/04/22 01:57:09;;;;;;;21.65;14.35;;;10.30;99.90;;;;;;5107657;28;20019;-46
2023/04/22 01:59:35;;;;;;;17.38;13.65;;;10.30;99.90;;;;;;5108127;28;20126;-46
2023/04/22 02:02:00;;;;;;;23.98;14.23;;;10.30;99.90;;;;;;5107216;28;20064;-46
2023/04/22 02:04:26;;;;;;;16.45;12.48;;;10.30;99.90;;;;;;5107907;28;20035;-46
2023/04/22 02:06:51;;;;;;;19.30;13.93;;;10.20;99.90;;;;;;5089052;28;20032;-46
2023/04/22 02:09:17;;;;;;;18.45;13.57;;;10.30;99.90;;;;;;5107261;28;20023;-46
2023/04/22 02:11:42;;;;;;;22.77;12.95;;;10.20;99.90;;;;;;5107156;28;20032;-46
2023/04/22 02:14:08;;;;;;;20.52;12.93;;;10.20;99.90;;;;;;5106237;28;20107;-47
2023/04/22 02:16:33;;;;;;;21.25;14.45;;;10.20;99.90;;;;;;5089169;28;20051;-46
2023/04/22 02:18:59;;;;;;;19.80;13.50;;;10.20;99.90;;;;;;5107563;28;20135;-46
2023/04/22 02:21:27;;;;;;;17.33;12.77;;;10.20;99.90;;;;;;5107915;28;20035;-46
2023/04/22 02:23:53;;;;;;;23.38;14.80;;;10.20;99.90;;;;;;5107886;28;20527;-46
2023/04/22 02:26:18;;;;;;;20.35;14.45;;;10.10;99.90;;;;;;5107790;28;20190;-48
2023/04/22 02:28:44;;;;;;;17.88;13.48;;;10.10;99.90;;;;;;5107272;28;20031;-46
2023/04/22 02:31:09;;;;;;;18.55;14.32;;;10.10;99.90;;;;;;5088894;28;20031;-46
2023/04/22 02:33:35;;;;;;;18.73;13.98;;;10.10;99.90;;;;;;5107283;28;20047;-46
2023/04/22 02:36:00;;;;;;;19.70;14.82;;;10.10;99.90;;;;;;5107240;28;20023;-46
2023/04/22 02:38:26;;;;;;;21.15;14.13;;;10.00;99.90;;;;;;5107180;28;20035;-45
2023/04/22 02:40:51;;;;;;;19.77;14.85;;;10.00;99.90;;;;;;5107204;28;20051;-46
2023/04/22 02:43:17;;;;;;;19.88;14.07;;;10.00;99.90;;;;;;5107730;28;20046;-49
2023/04/22 02:45:42;;;;;;;18.13;13.98;;;10.00;99.90;;;;;;5107465;28;20080;-45
2023/04/22 02:48:08;;;;;;;24.92;15.23;;;10.00;99.90;;;;;;5106712;28;20481;-46
2023/04/22 02:50:33;;;;;;;19.45;13.80;;;10.00;99.90;;;;;;5107128;28;20043;-46
2023/04/22 02:52:59;;;;;;;23.40;15.07;;;10.00;99.90;;;;;;5107389;28;20034;-46
2023/04/22 02:55:24;;;;;;;24.67;15.60;;;10.00;99.90;;;;;;5107528;28;20020;-45
2023/04/22 02:57:50;;;;;;;20.63;14.73;;;10.00;99.90;;;;;;5107425;28;20024;-45
2023/04/22 03:00:16;;;;;;;22.65;13.65;;;10.00;99.90;;;;;;5107118;28;20449;-46
2023/04/22 03:02:41;;;;;;;21.38;13.70;;;10.00;99.90;;;;;;5106917;28;20020;-45
2023/04/22 03:05:07;;;;;;;20.40;15.43;;;9.90;99.90;;;;;;5110996;28;20240;-46
2023/04/22 03:07:33;;;;;;;23.15;15.40;;;9.90;99.90;;;;;;5111438;28;20027;-46
2023/04/22 03:09:58;;;;;;;18.15;14.05;;;9.90;99.90;;;;;;5111364;28;20031;-47
2023/04/22 03:12:24;;;;;;;20.83;14.38;;;9.90;99.90;;;;;;5110807;28;20103;-45
2023/04/22 03:14:49;;;;;;;22.00;15.57;;;9.90;99.90;;;;;;5092783;28;20114;-46
2023/04/22 03:17:15;;;;;;;23.83;14.48;;;9.90;99.90;;;;;;5111110;28;20034;-46
2023/04/22 03:19:41;;;;;;;18.63;14.60;;;9.90;99.90;;;;;;5110340;28;20027;-45
2023/04/22 03:22:06;;;;;;;21.65;16.08;;;9.90;99.90;;;;;;5110041;28;20024;-46
2023/04/22 03:24:32;;;;;;;20.90;14.32;;;9.90;99.90;;;;;;5110435;28;20035;-45
2023/04/22 03:26:57;;;;;;;22.23;15.13;;;9.90;99.90;;;;;;5110254;28;20049;-46
2023/04/22 03:29:23;;;;;;;19.25;14.43;;;9.90;99.90;;;;;;5109929;28;20028;-45
2023/04/22 03:31:48;;;;;;;21.38;15.60;;;9.80;99.90;;;;;;5109969;27;20457;-46
2023/04/22 03:34:14;;;;;;;21.70;14.95;;;9.80;99.90;;;;;;5109928;28;20441;-46
2023/04/22 03:36:39;;;;;;;19.55;15.10;;;9.80;99.90;;;;;;5110588;28;20278;-46
2023/04/22 03:39:05;;;;;;;19.20;14.48;;;9.80;99.90;;;;;;5110474;28;20377;-46
2023/04/22 03:41:30;;;;;;;22.27;15.30;;;9.70;99.90;;;;;;5110119;28;20105;-45
2023/04/22 03:43:55;;;;;;;18.70;14.70;;;9.70;99.90;;;;;;5110238;28;20106;-45
2023/04/22 03:46:21;;;;;;;23.88;15.02;;;9.80;99.90;;;;;;5109748;28;20023;-47
2023/04/22 03:48:47;;;;;;;23.90;16.50;;;9.70;99.90;;;;;;5109694;28;20058;-48
2023/04/22 03:51:12;;;;;;;21.95;14.90;;;9.70;99.90;;;;;;5109723;28;20031;-45
2023/04/22 03:53:38;;;;;;;24.83;15.90;;;9.70;99.90;;;;;;5110006;28;20397;-46
2023/04/22 03:56:04;;;;;;;22.52;15.55;;;9.70;99.90;;;;;;5109579;28;20035;-46
2023/04/22 03:58:29;;;;;;;22.88;14.75;;;9.70;99.90;;;;;;5109678;28;20134;-46
2023/04/22 04:00:55;;;;;;;22.55;15.43;;;9.70;99.90;;;;;;5109504;28;20536;-46
2023/04/22 04:03:20;;;;;;;22.92;16.75;;;9.70;99.90;;;;;;5108905;27;20023;-45
2023/04/22 04:05:46;;;;;;;23.73;15.88;;;9.70;99.90;;;;;;5109171;28;20428;-46
2023/04/22 04:08:11;;;;;;;22.73;14.90;;;9.60;99.90;;;;;;5109399;28;20108;-46
2023/04/22 04:10:37;;;;;;;18.00;14.30;;;9.60;99.90;;;;;;5109078;28;20035;-48
2023/04/22 04:13:03;;;;;;;22.15;16.40;;;9.60;99.90;;;;;;5109478;28;20034;-45
2023/04/22 04:15:29;;;;;;;19.67;15.15;;;9.60;99.90;;;;;;5108260;28;20142;-47
2023/04/22 04:17:55;;;;;;;22.42;15.38;;;9.60;99.90;;;;;;5108441;28;20028;-46
2023/04/22 04:20:21;;;;;;;20.48;16.00;;;9.60;99.90;;;;;;5108996;28;20081;-46
2023/04/22 04:22:46;;;;;;;22.65;16.15;;;9.60;99.90;;;;;;5109074;28;20116;-45
2023/04/22 04:25:12;;;;;;;24.75;16.42;;;9.60;99.90;;;;;;5109822;28;20353;-45
2023/04/22 04:27:38;;;;;;;23.90;15.05;;;9.60;99.90;;;;;;5109046;28;20034;-45
2023/04/22 04:30:04;;;;;;;24.90;15.75;;;9.70;99.90;;;;;;5109225;28;20050;-46
2023/04/22 04:32:33;;;;;;;22.38;15.20;;;9.70;99.90;;;;;;5090592;28;20111;-47
2023/04/22 04:34:59;;;;;;;23.45;15.68;;;9.70;99.90;;;;;;5109170;28;20027;-45
2023/04/22 04:37:25;;;;;;;20.80;14.95;;;9.80;99.90;;;;;;5109596;28;20073;-47
2023/04/22 04:39:50;;;;;;;21.55;14.77;;;9.80;99.90;;;;;;5108998;28;20110;-46
2023/04/22 04:42:16;;;;;;;19.77;13.95;;;9.80;99.90;;;;;;5109115;28;20106;-46
2023/04/22 04:44:41;;;;;;;24.58;15.43;;;9.80;99.90;;;;;;5109233;28;20051;-46
2023/04/22 04:47:07;;;;;;;19.13;15.15;;;9.90;99.90;;;;;;5109037;28;20080;-46
2023/04/22 04:49:38;;;;;;;17.77;13.40;;;9.90;99.90;;;;;;5092024;28;20465;-47
2023/04/22 04:52:04;;;;;;;20.38;14.93;;;9.90;99.90;;;;;;5109158;28;20027;-46
2023/04/22 04:54:30;;;;;;;21.08;13.88;;;10.00;99.90;;;;;;5109355;28;20020;-47
2023/04/22 04:56:56;;;;;;;18.02;13.98;;;10.00;99.90;;;;;;5108952;28;20035;-47
2023/04/22 04:59:21;;;;;;;18.50;13.70;;;10.00;99.90;;;;;;5109002;28;20094;-47
2023/04/22 05:01:47;;;;;;;19.35;14.23;;;10.00;99.90;;;;;;5108797;28;20449;-48
2023/04/22 05:04:12;;;;;;;19.98;14.68;;;10.10;99.90;;;;;;5108351;28;20034;-46
2023/04/22 05:06:38;;;;;;;20.70;15.23;;;10.00;99.90;;;;;;5109088;28;20033;-49
2023/04/22 05:09:04;;;;;;;20.13;14.93;;;10.00;99.90;;;;;;5108468;28;20034;-46
2023/04/22 05:11:30;;;;;;;20.45;15.65;;;10.00;99.90;;;;;;5088010;28;20048;-46
2023/04/22 05:13:55;;;;;;;19.85;14.80;;;10.10;99.90;;;;;;5074649;28;20043;-47
2023/04/22 05:16:21;;;;;;;19.38;13.27;;;10.10;99.90;;;;;;5108329;28;20548;-47
2023/04/22 05:18:46;;;;;;;20.90;14.32;;;10.10;99.90;;;;;;5109314;27;20202;-48
2023/04/22 05:21:12;;;;;;;20.75;13.73;;;10.10;99.90;;;;;;5089330;28;20027;-46
2023/04/22 05:23:38;;;;;;;17.13;12.73;;;10.20;99.90;;;;;;5108300;28;20101;-47
2023/04/22 05:26:03;;;;;;;18.13;12.35;;;10.30;99.90;;;;;;5108189;28;20032;-47
2023/04/22 05:28:29;;;;;;;17.50;12.07;;;10.50;99.90;;;;;;5107793;28;20085;-49
2023/04/22 05:30:55;;;;;;;17.35;11.52;;;10.60;99.90;;;;;;5108704;28;20492;-47
2023/04/22 05:33:20;;;;;;;15.38;10.75;;;10.60;99.90;;;;;;5109659;28;20024;-46
2023/04/22 05:35:46;;;;;;;17.05;11.35;;;10.70;99.90;;;;;;5108017;28;20095;-46
2023/04/22 05:38:11;;;;;;;16.40;11.20;;;10.80;99.90;;;;;;5107714;28;20024;-49
2023/04/22 05:40:38;;;;;;;19.10;11.43;;;10.90;99.90;;;;;;5089519;28;20015;-46
2023/04/22 05:43:03;;;;;;;18.63;11.55;;;10.90;99.90;;;;;;5107738;28;20068;-47
2023/04/22 05:45:29;;;;;;;17.08;11.63;;;11.00;99.90;;;;;;5089183;28;20031;-46
2023/04/22 05:47:54;;;;;;;15.48;11.63;;;11.10;99.90;;;;;;5088807;28;20047;-48
2023/04/22 05:50:20;;;;;;;14.45;10.60;;;11.20;99.90;;;;;;5089741;28;20028;-50
2023/04/22 05:52:45;;;;;;;17.73;11.35;;;11.30;99.90;;;;;;5107731;28;20035;-48
2023/04/22 05:55:11;;;;;;;15.82;10.63;;;11.40;99.90;;;;;;5107323;28;20031;-48
2023/04/22 05:57:36;;;;;;;17.40;11.05;;;11.40;99.90;;;;;;5107071;28;20137;-48
2023/04/22 06:00:03;;;;;;;18.17;10.32;;;11.50;99.90;;;;;;5088926;28;20016;-50
2023/04/22 06:02:28;;;;;;;16.30;10.40;;;11.60;99.90;;;;;;5107031;28;20393;-46
2023/04/22 06:04:54;;;;;;;16.33;10.73;;;11.70;99.90;;;;;;5088472;28;20027;-47
2023/04/22 06:07:19;;;;;;;21.27;10.27;;;11.90;99.90;;;;;;5107024;28;20038;-48
2023/04/22 06:09:45;;;;;;;14.73;10.05;;;11.90;99.90;;;;;;5106787;28;20093;-48
2023/04/22 06:12:11;;;;;;;15.38;9.63;;;12.20;99.90;;;;;;5106576;28;20098;-47
2023/04/22 06:14:36;;;;;;;16.35;10.68;;;12.30;99.90;;;;;;5114947;27;20039;-50
2023/04/22 06:17:02;;;;;;;18.20;9.38;;;12.40;99.90;;;;;;5127768;27;20495;-47
2023/04/22 06:19:28;;;;;;;14.68;8.75;;;12.50;99.90;;;;;;5115889;27;20535;-47
2023/04/22 06:21:53;;;;;;;13.63;9.13;;;12.60;99.90;;;;;;5107410;28;20098;-49
2023/04/22 06:24:19;;;;;;;17.52;9.90;;;12.60;99.90;;;;;;5107532;28;20051;-47
2023/04/22 06:26:44;;;;;;;12.00;8.20;;;12.80;99.90;;;;;;5108164;28;20031;-46
2023/04/22 06:29:09;;;;;;;19.75;8.90;;;13.00;99.90;;;;;;5107354;28;20050;-50
2023/04/22 06:31:35;;;;;;;16.67;8.77;;;13.00;99.90;;;;;;5120666;27;20023;-47
2023/04/22 06:34:01;;;;;;;17.85;8.70;;;13.20;99.90;;;;;;5128053;27;20586;-46
2023/04/22 06:36:26;;;;;;;15.32;7.82;;;13.20;99.90;;;;;;5108518;28;20410;-47
2023/04/22 06:38:53;;;;;;;13.68;7.63;;;13.40;99.70;;;;;;5110850;28;20035;-46
2023/04/22 06:41:20;;;;;;;13.52;7.28;;;13.40;99.60;;;;;;5113764;28;20012;-49
2023/04/22 06:43:48;;;;;;;14.30;7.93;;;13.40;99.70;;;;;;5095633;27;20011;-47
2023/04/22 06:46:15;;;;;;;14.23;7.57;;;13.60;99.60;;;;;;5114359;28;20027;-47
2023/04/22 06:48:40;;;;;;;11.35;7.25;;;13.70;99.20;;;;;;5115702;27;20024;-47
2023/04/22 06:51:06;;;;;;;17.15;7.45;;;13.70;99.00;;;;;;5113729;28;20525;-47
2023/04/22 06:53:31;;;;;;;13.20;7.50;;;13.80;99.00;;;;;;5114314;28;20269;-47
2023/04/22 06:55:57;;;;;;;15.40;7.78;;;13.90;99.20;;;;;;5114274;28;20034;-47
2023/04/22 06:58:22;;;;;;;10.73;7.20;;;14.00;98.70;;;;;;5114559;28;20048;-47
2023/04/22 07:00:48;;;;;;;24.08;7.90;;;14.10;98.20;;;;;;5113989;28;20384;-48
2023/04/22 07:03:13;;;;;;;10.80;7.35;;;14.20;98.00;;;;;;5114350;28;20028;-47
2023/04/22 07:05:39;;;;;;;13.27;7.07;;;14.30;98.00;;;;;;5114093;28;20028;-49
2023/04/22 07:08:04;;;;;;;17.15;6.85;;;14.50;97.40;;;;;;5114196;28;20032;-49
2023/04/22 07:10:30;;;;;;;11.88;6.60;;;14.60;97.30;;;;;;5114194;28;20019;-48
2023/04/22 07:12:55;;;;;;;8.70;6.70;;;14.70;97.30;;;;;;5114158;28;20032;-48
2023/04/22 07:15:21;;;;;;;14.25;7.25;;;14.80;97.00;;;;;;5114479;28;20031;-49
2023/04/22 07:17:46;;;;;;;10.63;6.93;;;14.90;97.00;;;;;;5114247;28;20023;-48
2023/04/22 07:20:12;;;;;;;15.95;6.38;;;15.00;96.90;;;;;;5096507;28;20023;-47
2023/04/22 07:22:37;;;;;;;14.05;6.93;;;15.00;96.90;;;;;;5114316;28;20102;-48
2023/04/22 07:25:05;;;;;;;9.52;6.40;;;15.20;96.80;;;;;;5114127;28;20023;-47
2023/04/22 07:27:31;;;;;;;10.23;6.43;;;15.40;96.40;;;;;;5114114;28;20038;-48
2023/04/22 07:29:56;;;;;;;11.35;6.50;;;15.50;96.70;;;;;;5113782;28;20492;-48
2023/04/22 07:32:22;;;;;;;10.45;6.32;;;15.60;95.40;;;;;;5113641;28;20495;-49
2023/04/22 07:34:48;;;;;;;10.32;5.90;;;15.80;95.60;;;;;;5095610;28;20034;-48
2023/04/22 07:37:13;;;;;;;15.60;6.65;;;16.00;94.80;;;;;;5114631;28;20023;-46
2023/04/22 07:39:39;;;;;;;10.85;6.53;;;16.20;94.10;;;;;;5114237;28;20499;-46
2023/04/22 07:42:06;;;;;;;13.43;6.35;;;16.40;93.50;;;;;;5095171;28;20027;-45
2023/04/22 07:44:31;;;;;;;11.30;6.00;;;16.50;93.20;;;;;;5113407;28;20035;-46
2023/04/22 07:46:58;;;;;;;16.27;6.70;;;16.80;93.00;;;;;;5113690;28;20028;-47
2023/04/22 07:49:23;;;;;;;7.93;5.78;;;16.70;92.10;;;;;;5121365;27;20023;-46
2023/04/22 07:51:50;;;;;;;10.65;5.60;;;16.80;92.50;;;;;;5109410;28;20137;-48
2023/04/22 07:54:15;;;;;;;7.53;5.82;;;17.10;92.70;;;;;;5091621;28;20038;-47
2023/04/22 07:56:41;;;;;;;16.25;6.05;;;17.30;91.10;;;;;;5109814;28;20027;-47
2023/04/22 07:59:07;;;;;;;11.52;5.20;;;17.90;90.50;;;;;;5090990;28;20054;-46
2023/04/22 08:01:32;;;;;;;17.35;5.78;;;18.20;88.70;;;;;;5109849;28;20180;-49
2023/04/22 08:03:58;;;;;;;11.10;5.38;;;18.40;87.80;;;;;;5110460;28;20070;-47
2023/04/22 08:06:24;;;;;;;9.60;5.25;;;19.00;84.70;;;;;;5091723;28;20114;-46
2023/04/22 08:08:49;;;;;;;9.82;4.90;;;19.80;83.90;;;;;;5110021;28;20035;-48
2023/04/22 08:11:15;;;;;;;9.75;5.40;;;20.50;81.00;;;;;;5091282;28;20028;-46
2023/04/22 08:13:40;;;;;;;11.45;5.10;;;21.60;76.10;;;;;;5110367;28;20028;-47
2023/04/22 08:16:06;;;;;;;7.50;5.00;;;22.20;73.70;;;;;;5109561;28;20309;-47
2023/04/22 08:18:31;;;;;;;9.77;4.93;;;22.50;71.60;;;;;;5112925;27;20023;-46
2023/04/22 08:20:57;;;;;;;9.93;5.03;;;22.80;70.30;;;;;;5114136;27;20024;-47
2023/04/22 08:23:24;;;;;;;15.02;4.85;;;23.30;69.40;;;;;;5109490;28;20027;-44
2023/04/22 08:25:50;;;;;;;6.75;4.95;;;23.70;68.40;;;;;;5109423;28;20058;-44
2023/04/22 08:28:15;;;;;;;8.25;4.38;;;23.30;65.50;;;;;;5109803;28;20027;-45
2023/04/22 08:30:41;;;;;;;10.25;4.70;;;23.50;66.90;;;;;;5110932;27;20080;-44
2023/04/22 08:33:06;;;;;;;9.30;4.43;;;23.60;65.00;;;;;;5104623;28;20028;-45
2023/04/22 08:35:35;;;;;;;7.35;4.53;;;24.90;63.80;;;;;;5108257;28;20432;-45
2023/04/22 08:38:01;;;;;;;7.65;4.53;;;26.10;61.10;;;;;;5089804;28;20575;-46
2023/04/22 08:40:27;;;;;;;7.93;4.18;;;27.50;58.70;;;;;;5108783;28;20035;-45
2023/04/22 08:42:54;;;;;;;8.82;4.70;;;28.00;57.10;;;;;;5104933;28;20492;-45
2023/04/22 08:45:20;;;;;;;8.43;5.50;;;28.70;56.40;;;;;;5101754;28;20039;-45
2023/04/22 08:47:50;;;;;;;11.35;5.90;;;29.20;56.40;;;;;;5108484;28;20027;-45
2023/04/22 08:50:18;;;;;;;9.23;5.60;;;29.80;54.50;;;;;;5089554;28;20028;-45
2023/04/22 08:52:44;;;;;;;10.65;5.60;;;30.20;53.10;;;;;;5086175;28;20020;-49
2023/04/22 08:55:09;;;;;;;6.95;5.10;;;30.10;53.50;;;;;;5106787;28;20031;-46
2023/04/22 08:57:37;;;;;;;10.55;5.13;;;30.30;53.40;;;;;;5106744;28;20034;-45
2023/04/22 09:00:04;;;;;;;7.03;4.93;;;31.20;51.90;;;;;;5089604;28;20054;-45
2023/04/22 09:02:31;;;;;;;8.07;5.03;;;31.30;52.20;;;;;;5106632;28;20047;-45
2023/04/22 09:04:59;;;;;;;7.53;5.05;;;32.10;50.70;;;;;;5107084;28;20636;-46
2023/04/22 09:07:27;;;;;;;13.32;5.82;;;31.80;51.90;;;;;;5105421;28;20019;-45
2023/04/22 09:09:54;;;;;;;8.48;5.03;;;32.60;49.10;;;;;;5089597;28;20019;-45
2023/04/22 09:12:20;;;;;;;7.20;4.85;;;33.00;48.30;;;;;;5107697;28;20389;-45
2023/04/22 09:14:46;;;;;;;9.63;4.85;;;33.00;48.80;;;;;;5107718;28;20019;-45
2023/04/22 09:17:16;;;;;;;7.72;4.57;;;32.70;51.00;;;;;;5108418;28;20034;-45
2023/04/22 09:19:41;;;;;;;6.53;5.10;;;32.90;49.60;;;;;;5089599;28;20107;-45
2023/04/22 09:22:14;;;;;;;8.88;5.30;;;33.60;47.90;;;;;;5107732;28;20119;-45
2023/04/22 09:24:50;;;;;;;8.13;4.80;;;33.60;48.20;;;;;;5108417;28;20114;-48
2023/04/22 09:27:17;;;;;;;8.15;4.47;;;35.00;44.90;;;;;;5108422;28;20424;-45
2023/04/22 09:29:50;;;;;;;11.50;4.93;;;35.40;45.20;;;;;;5110541;27;20030;-46
2023/04/22 09:32:16;;;;;;;8.40;4.65;;;35.10;44.20;;;;;;5107947;28;20043;-47
2023/04/22 09:34:50;;;;;;;7.18;4.30;;;35.30;45.90;;;;;;5090179;28;20038;-48
2023/04/22 09:37:24;;;;;;;6.80;4.95;;;35.80;44.40;;;;;;5108667;28;20341;-45
2023/04/22 09:39:50;;;;;;;8.10;4.78;;;34.70;46.70;;;;;;5108487;28;20402;-45
2023/04/22 09:42:16;;;;;;;7.60;4.68;;;34.80;45.50;;;;;;5108203;28;20027;-48
2023/04/22 09:44:47;;;;;;;7.85;4.82;;;34.80;44.20;;;;;;5108456;28;20500;-46
2023/04/22 09:47:13;;;;;;;7.07;4.28;;;35.40;44.50;;;;;;5108950;28;20050;-45
2023/04/22 09:49:39;;;;;;;7.30;3.88;;;35.60;43.40;;;;;;5089752;28;20559;-45
2023/04/22 09:52:05;;;;;;;5.68;3.83;;;34.90;41.70;;;;;;5107617;28;20038;-46
2023/04/22 09:54:31;;;;;;;4.55;4.15;;;35.30;43.10;;;;;;5107784;28;20523;-46
2023/04/22 09:56:57;;;;;;;11.18;5.40;;;35.90;43.20;;;;;;5107918;28;20027;-45
2023/04/22 09:59:28;;;;;;;8.52;4.70;;;35.80;43.60;;;;;;5091693;28;20031;-45
2023/04/22 10:02:05;;;;;;;12.18;4.63;;;36.30;43.00;;;;;;5089064;28;20064;-45
2023/04/22 10:04:31;;;;;;;8.52;4.38;;;36.70;42.90;;;;;;5107972;28;20019;-45
2023/04/22 10:06:57;;;;;;;5.15;3.55;;;36.80;41.20;;;;;;5107805;28;20132;-45
2023/04/22 10:09:24;;;;;;;8.07;4.28;;;36.40;41.70;;;;;;5107574;28;20034;-45
2023/04/22 10:11:52;;;;;;;8.98;4.10;;;36.50;41.20;;;;;;5107476;28;20062;-48
2023/04/22 10:14:20;;;;;;;7.10;3.88;;;36.00;41.50;;;;;;5107090;28;20027;-45
2023/04/22 10:16:46;;;;;;;9.13;3.70;;;35.90;41.60;;;;;;5089589;28;20397;-47
2023/04/22 10:19:16;;;;;;;5.95;3.85;;;37.10;41.20;;;;;;5089038;28;20051;-45
2023/04/22 10:21:44;;;;;;;7.65;3.90;;;36.10;40.40;;;;;;5107635;28;20058;-46
2023/04/22 10:24:17;;;;;;;8.82;3.58;;;36.50;40.10;;;;;;5107729;28;20042;-45
2023/04/22 10:27:00;;;;;;;7.53;3.45;;;36.60;40.50;;;;;;5108193;28;20208;-45
2023/04/22 10:29:34;;;;;;;5.72;3.70;;;36.70;40.10;;;;;;5110294;28;20426;-46
2023/04/22 10:32:09;;;;;;;8.55;3.95;;;37.00;40.30;;;;;;5115065;27;20023;-46
2023/04/22 10:34:36;;;;;;;5.15;3.85;;;36.10;41.30;;;;;;5128237;27;20020;-45
2023/04/22 10:37:06;;;;;;;8.57;4.07;;;35.50;41.60;;;;;;5128060;28;20023;-48
2023/04/22 10:39:32;;;;;;;9.90;4.20;;;34.20;42.10;;;;;;5128126;28;20491;-46
2023/04/22 10:42:10;;;;;;;8.38;4.13;;;34.20;43.00;;;;;;5109568;28;20023;-45
2023/04/22 10:44:59;;;;;;;9.68;4.00;;;34.70;42.00;;;;;;5127903;28;20096;-45
2023/04/22 10:47:36;;;;;;;7.07;4.40;;;34.80;41.70;;;;;;5127750;28;20023;-46
2023/04/22 10:50:08;;;;;;;9.45;3.78;;;34.30;41.40;;;;;;5118580;28;20427;-46
2023/04/22 10:52:34;;;;;;;6.55;4.00;;;34.70;41.60;;;;;;5107168;28;20031;-45
2023/04/22 10:55:00;;;;;;;9.15;4.80;;;34.80;43.50;;;;;;5107241;28;20262;-47
2023/04/22 10:57:36;;;;;;;9.35;4.18;;;34.70;42.10;;;;;;5107189;28;20024;-45
2023/04/22 11:00:25;;;;;;;5.80;4.05;;;33.50;41.60;;;;;;5107201;28;20110;-47
2023/04/22 11:03:09;;;;;;;7.68;3.97;;;32.80;44.90;;;;;;5107656;28;20019;-45
2023/04/22 11:05:36;;;;;;;7.22;4.30;;;31.90;46.10;;;;;;5107848;28;20483;-46
2023/04/22 11:08:27;;;;;;;6.10;3.97;;;32.70;44.10;;;;;;5107399;28;20560;-46
2023/04/22 11:11:07;;;;;;;5.15;3.50;;;32.90;43.20;;;;;;5086984;28;20032;-48
2023/04/22 11:13:33;;;;;;;7.28;3.80;;;32.90;43.60;;;;;;5080509;28;20051;-47
2023/04/22 11:15:59;;;;;;;9.18;4.30;;;33.50;44.30;;;;;;5086549;28;20481;-45
2023/04/22 11:18:26;;;;;;;11.15;4.07;;;33.50;45.20;;;;;;5107963;28;20024;-45
2023/04/22 11:20:52;;;;;;;5.00;3.90;;;33.80;44.80;;;;;;5112264;27;20103;-45
2023/04/22 11:23:26;;;;;;;4.40;3.42;;;34.00;43.10;;;;;;5106199;28;20031;-44
2023/04/22 11:26:03;;;;;;;9.35;4.07;;;33.80;41.40;;;;;;5111839;27;20110;-45
2023/04/22 11:28:28;;;;;;;7.10;3.88;;;32.90;43.10;;;;;;5130997;27;20027;-45
2023/04/22 11:31:05;;;;;;;4.53;3.00;;;32.80;44.40;;;;;;5126949;27;20357;-45
2023/04/22 11:33:34;;;;;;;4.57;3.40;;;33.70;42.60;;;;;;5110411;28;20027;-44
2023/04/22 11:36:00;;;;;;;6.00;3.70;;;33.20;45.10;;;;;;5110477;28;20115;-44
2023/04/22 11:38:25;;;;;;;5.82;3.47;;;33.50;42.50;;;;;;5110779;28;20174;-44
2023/04/22 11:40:54;;;;;;;5.85;2.88;;;32.80;42.50;;;;;;5110937;28;20381;-44
2023/04/22 11:43:19;;;;;;;5.30;3.35;;;33.10;45.70;;;;;;5110782;28;20035;-44
2023/04/22 11:45:45;;;;;;;7.22;3.50;;;32.20;43.60;;;;;;5110946;28;20064;-46
2023/04/22 11:48:11;;;;;;;5.97;3.28;;;32.30;42.80;;;;;;5110750;28;20019;-44
2023/04/22 11:50:38;;;;;;;5.10;3.13;;;31.00;43.70;;;;;;5116027;27;20496;-45
2023/04/22 11:53:14;;;;;;;4.50;3.00;;;31.30;43.80;;;;;;5110085;28;20028;-47
2023/04/22 11:55:40;;;;;;;5.05;3.30;;;31.50;44.10;;;;;;5088833;28;20500;-44
2023/04/22 11:58:11;;;;;;;8.10;3.40;;;32.50;44.80;;;;;;5109859;28;20315;-47
2023/04/22 12:00:40;;;;;;;6.63;3.10;;;32.60;44.10;;;;;;5109774;28;20127;-48
2023/04/22 12:03:17;;;;;;;8.77;3.40;;;31.20;44.60;;;;;;5110288;28;20076;-46
2023/04/22 12:05:54;;;;;;;6.80;3.22;;;31.10;44.00;;;;;;5110678;28;20039;-46
2023/04/22 12:08:25;;;;;;;6.80;3.17;;;30.50;43.60;;;;;;5110667;28;20028;-47
2023/04/22 12:10:55;;;;;;;6.63;3.10;;;30.60;43.80;;;;;;5110677;28;20024;-45
2023/04/22 12:13:33;;;;;;;4.25;2.97;;;30.30;45.10;;;;;;5092144;28;20080;-45
2023/04/22 12:16:19;;;;;;;6.88;3.03;;;29.70;45.50;;;;;;5110307;28;20024;-46
2023/04/22 12:18:50;;;;;;;4.60;2.92;;;29.80;45.90;;;;;;5111308;27;20035;-44
2023/04/22 12:21:22;;;;;;;3.55;3.17;;;29.70;45.70;;;;;;5090213;28;20126;-45
2023/04/22 12:23:57;;;;;;;4.28;2.58;;;29.00;45.80;;;;;;5109782;28;20019;-45
2023/04/22 12:26:25;;;;;;;5.15;3.10;;;28.70;44.80;;;;;;5110048;28;20427;-44
2023/04/22 12:28:52;;;;;;;2.67;2.47;;;28.40;46.00;;;;;;5109469;28;20099;-44
2023/04/22 12:31:18;;;;;;;3.47;2.30;;;27.60;45.30;;;;;;5109288;28;20023;-47
2023/04/22 12:33:45;;;;;;;3.17;2.38;;;27.80;46.90;;;;;;5109452;28;20028;-45